sensor_id;sensor_type;location;lat;lon;timestamp;temperature;humidity
66119;DHT22;52912;48.564;9.302;2023-07-30T00:00:44;18.63;99.99
66119;DHT22;52912;48.564;9.302;2023-07-30T00:03:28;18.71;99.99
66119;DHT22;52912;48.564;9.302;2023-07-30T00:06:08;18.64;99.96
66119;DHT22;52912;48.564;9.302;2023-07-30T00:09:06;18.50;99.99
66119;DHT22;52912;48.564;9.302;2023-07-30T00:11:35;18.43;99.99
66119;DHT22;52912;48.564;9.302;2023-07-30T00:14:08;18.39;99.99
66119;DHT22;52912;48.564;9.302;2023-07-30T00:16:47;18.39;99.99
66119;DHT22;52912;48.564;9.302;2023-07-30T00:22:24;18.50;99.99
66119;DHT22;52912;48.564;9.302;2023-07-30T00:27:35;18.54;99.91
66119;DHT22;52912;48.564;9.302;2023-07-30T00:30:01;18.58;99.86
66119;DHT22;52912;48.564;9.302;2023-07-30T00:32:29;18.51;99.45
66119;DHT22;52912;48.564;9.302;2023-07-30T00:41:18;18.57;99.99
66119;DHT22;52912;48.564;9.302;2023-07-30T00:43:57;18.61;99.99
66119;DHT22;52912;48.564;9.302;2023-07-30T00:46:35;18.63;99.99
66119;DHT22;52912;48.564;9.302;2023-07-30T00:49:07;18.58;99.85
66119;DHT22;52912;48.564;9.302;2023-07-30T00:54:31;18.46;99.99
66119;DHT22;52912;48.564;9.302;2023-07-30T00:57:21;18.29;99.99
66119;DHT22;52912;48.564;9.302;2023-07-30T00:59:50;18.34;99.99
66119;DHT22;52912;48.564;9.302;2023-07-30T01:02:34;18.29;99.99
66119;DHT22;52912;48.564;9.302;2023-07-30T01:05:20;18.28;99.99
66119;DHT22;52912;48.564;9.302;2023-07-30T01:08:04;18.36;99.98
66119;DHT22;52912;48.564;9.302;2023-07-30T01:10:48;18.34;99.99
66119;DHT22;52912;48.564;9.302;2023-07-30T01:13:30;18.36;99.99
66119;DHT22;52912;48.564;9.302;2023-07-30T01:16:08;18.32;99.99
66119;DHT22;52912;48.564;9.302;2023-07-30T01:21:08;18.33;99.99
66119;DHT22;52912;48.564;9.302;2023-07-30T01:23:34;18.32;99.58
66119;DHT22;52912;48.564;9.302;2023-07-30T01:26:03;18.36;99.56
66119;DHT22;52912;48.564;9.302;2023-07-30T01:28:33;18.46;99.48
66119;DHT22;52912;48.564;9.302;2023-07-30T01:31:02;18.46;99.24
66119;DHT22;52912;48.564;9.302;2023-07-30T01:33:29;18.47;98.83
66119;DHT22;52912;48.564;9.302;2023-07-30T01:35:56;18.47;98.54
66119;DHT22;52912;48.564;9.302;2023-07-30T01:43:33;18.41;98.39
66119;DHT22;52912;48.564;9.302;2023-07-30T01:46:01;18.46;98.66
66119;DHT22;52912;48.564;9.302;2023-07-30T01:48:27;18.39;98.28
66119;DHT22;52912;48.564;9.302;2023-07-30T01:50:54;18.39;98.16
66119;DHT22;52912;48.564;9.302;2023-07-30T01:53:20;18.40;98.12
66119;DHT22;52912;48.564;9.302;2023-07-30T01:55:45;18.39;98.34
66119;DHT22;52912;48.564;9.302;2023-07-30T01:58:11;18.39;98.50
66119;DHT22;52912;48.564;9.302;2023-07-30T02:00:38;18.41;98.28
66119;DHT22;52912;48.564;9.302;2023-07-30T02:03:04;18.30;98.71
66119;DHT22;52912;48.564;9.302;2023-07-30T02:05:30;18.23;98.88
66119;DHT22;52912;48.564;9.302;2023-07-30T02:08:01;18.14;99.40
66119;DHT22;52912;48.564;9.302;2023-07-30T02:10:27;18.12;99.45
66119;DHT22;52912;48.564;9.302;2023-07-30T02:12:58;17.89;99.99
66119;DHT22;52912;48.564;9.302;2023-07-30T02:15:24;17.79;99.99
66119;DHT22;52912;48.564;9.302;2023-07-30T02:17:51;17.82;99.99
66119;DHT22;52912;48.564;9.302;2023-07-30T02:20:18;17.75;99.99
66119;DHT22;52912;48.564;9.302;2023-07-30T02:22:44;17.58;99.99
66119;DHT22;52912;48.564;9.302;2023-07-30T02:25:09;17.53;99.99
66119;DHT22;52912;48.564;9.302;2023-07-30T02:27:35;17.63;99.99
66119;DHT22;52912;48.564;9.302;2023-07-30T02:30:01;17.67;99.71
66119;DHT22;52912;48.564;9.302;2023-07-30T02:32:28;17.67;99.60
66119;DHT22;52912;48.564;9.302;2023-07-30T02:34:56;17.78;99.21
66119;DHT22;52912;48.564;9.302;2023-07-30T02:37:22;17.74;99.26
66119;DHT22;52912;48.564;9.302;2023-07-30T02:39:47;17.63;99.51
66119;DHT22;52912;48.564;9.302;2023-07-30T02:42:13;17.55;99.65
66119;DHT22;52912;48.564;9.302;2023-07-30T02:44:39;17.57;99.57
66119;DHT22;52912;48.564;9.302;2023-07-30T02:47:07;17.54;99.49
66119;DHT22;52912;48.564;9.302;2023-07-30T02:49:33;17.53;99.35
66119;DHT22;52912;48.564;9.302;2023-07-30T02:52:00;17.58;99.36
66119;DHT22;52912;48.564;9.302;2023-07-30T02:54:25;17.58;99.60
66119;DHT22;52912;48.564;9.302;2023-07-30T02:56:51;17.55;99.54
66119;DHT22;52912;48.564;9.302;2023-07-30T02:59:16;17.61;99.33
66119;DHT22;52912;48.564;9.302;2023-07-30T03:01:42;17.57;99.59
66119;DHT22;52912;48.564;9.302;2023-07-30T03:04:07;17.48;99.53
66119;DHT22;52912;48.564;9.302;2023-07-30T03:06:33;17.58;99.09
66119;DHT22;52912;48.564;9.302;2023-07-30T03:09:00;17.58;99.01
66119;DHT22;52912;48.564;9.302;2023-07-30T03:11:25;17.58;98.80
66119;DHT22;52912;48.564;9.302;2023-07-30T03:13:54;17.47;99.16
66119;DHT22;52912;48.564;9.302;2023-07-30T03:16:19;17.47;99.28
66119;DHT22;52912;48.564;9.302;2023-07-30T03:18:45;17.48;99.15
66119;DHT22;52912;48.564;9.302;2023-07-30T03:21:12;17.46;99.12
66119;DHT22;52912;48.564;9.302;2023-07-30T03:23:37;17.48;98.81
66119;DHT22;52912;48.564;9.302;2023-07-30T03:26:04;17.53;98.80
66119;DHT22;52912;48.564;9.302;2023-07-30T03:28:30;17.44;99.19
66119;DHT22;52912;48.564;9.302;2023-07-30T03:30:55;17.46;99.09
66119;DHT22;52912;48.564;9.302;2023-07-30T03:33:21;17.46;99.04
66119;DHT22;52912;48.564;9.302;2023-07-30T03:35:46;17.43;98.96
66119;DHT22;52912;48.564;9.302;2023-07-30T03:38:12;17.46;98.83
66119;DHT22;52912;48.564;9.302;2023-07-30T03:40:37;17.51;98.79
66119;DHT22;52912;48.564;9.302;2023-07-30T03:43:04;17.48;99.40
66119;DHT22;52912;48.564;9.302;2023-07-30T03:45:32;17.47;99.32
66119;DHT22;52912;48.564;9.302;2023-07-30T03:48:01;17.44;99.17
66119;DHT22;52912;48.564;9.302;2023-07-30T03:50:27;17.50;98.68
66119;DHT22;52912;48.564;9.302;2023-07-30T03:52:53;17.47;98.82
66119;DHT22;52912;48.564;9.302;2023-07-30T03:55:18;17.51;98.77
66119;DHT22;52912;48.564;9.302;2023-07-30T03:57:44;17.54;98.44
66119;DHT22;52912;48.564;9.302;2023-07-30T04:00:11;17.57;98.10
66119;DHT22;52912;48.564;9.302;2023-07-30T04:02:37;17.63;98.60
66119;DHT22;52912;48.564;9.302;2023-07-30T04:05:05;17.64;98.59
66119;DHT22;52912;48.564;9.302;2023-07-30T04:07:31;17.66;98.42
66119;DHT22;52912;48.564;9.302;2023-07-30T04:09:56;17.71;97.82
66119;DHT22;52912;48.564;9.302;2023-07-30T04:12:22;17.70;98.34
66119;DHT22;52912;48.564;9.302;2023-07-30T04:14:47;17.78;98.48
66119;DHT22;52912;48.564;9.302;2023-07-30T04:17:17;17.79;98.46
66119;DHT22;52912;48.564;9.302;2023-07-30T04:19:45;17.77;98.01
66119;DHT22;52912;48.564;9.302;2023-07-30T04:22:11;17.81;98.32
66119;DHT22;52912;48.564;9.302;2023-07-30T04:24:39;17.78;99.65
66119;DHT22;52912;48.564;9.302;2023-07-30T04:27:05;17.74;99.99
66119;DHT22;52912;48.564;9.302;2023-07-30T04:29:31;17.78;98.20
66119;DHT22;52912;48.564;9.302;2023-07-30T04:31:56;17.84;98.41
66119;DHT22;52912;48.564;9.302;2023-07-30T04:34:23;17.89;97.95
66119;DHT22;52912;48.564;9.302;2023-07-30T04:36:49;17.91;98.14
66119;DHT22;52912;48.564;9.302;2023-07-30T04:39:16;17.91;97.59
66119;DHT22;52912;48.564;9.302;2023-07-30T04:41:47;17.91;97.45
66119;DHT22;52912;48.564;9.302;2023-07-30T04:44:13;17.92;97.53
66119;DHT22;52912;48.564;9.302;2023-07-30T04:46:41;17.88;97.67
66119;DHT22;52912;48.564;9.302;2023-07-30T04:49:07;17.81;97.93
66119;DHT22;52912;48.564;9.302;2023-07-30T04:51:34;17.78;97.90
66119;DHT22;52912;48.564;9.302;2023-07-30T04:53:59;17.81;97.76
66119;DHT22;52912;48.564;9.302;2023-07-30T04:56:25;17.88;98.04
66119;DHT22;52912;48.564;9.302;2023-07-30T04:58:50;17.92;98.22
66119;DHT22;52912;48.564;9.302;2023-07-30T05:01:16;17.92;98.46
66119;DHT22;52912;48.564;9.302;2023-07-30T05:03:44;17.89;98.08
66119;DHT22;52912;48.564;9.302;2023-07-30T05:06:12;17.92;98.25
66119;DHT22;52912;48.564;9.302;2023-07-30T05:08:39;17.98;98.31
66119;DHT22;52912;48.564;9.302;2023-07-30T05:11:05;18.01;97.58
66119;DHT22;52912;48.564;9.302;2023-07-30T05:13:30;18.05;97.69
66119;DHT22;52912;48.564;9.302;2023-07-30T05:15:56;18.25;97.77
66119;DHT22;52912;48.564;9.302;2023-07-30T05:18:24;18.36;97.41
66119;DHT22;52912;48.564;9.302;2023-07-30T05:20:53;18.44;97.20
66119;DHT22;52912;48.564;9.302;2023-07-30T05:23:19;18.41;96.67
66119;DHT22;52912;48.564;9.302;2023-07-30T05:25:46;18.29;96.48
66119;DHT22;52912;48.564;9.302;2023-07-30T05:28:12;18.30;96.90
66119;DHT22;52912;48.564;9.302;2023-07-30T05:30:38;18.32;96.77
66119;DHT22;52912;48.564;9.302;2023-07-30T05:33:03;18.29;96.22
66119;DHT22;52912;48.564;9.302;2023-07-30T05:35:31;18.29;96.64
66119;DHT22;52912;48.564;9.302;2023-07-30T05:37:56;18.36;96.23
66119;DHT22;52912;48.564;9.302;2023-07-30T05:40:22;18.39;96.00
66119;DHT22;52912;48.564;9.302;2023-07-30T05:42:50;18.41;96.35
66119;DHT22;52912;48.564;9.302;2023-07-30T05:45:22;18.40;96.39
66119;DHT22;52912;48.564;9.302;2023-07-30T05:47:47;18.46;95.68
66119;DHT22;52912;48.564;9.302;2023-07-30T05:50:13;18.54;96.20
66119;DHT22;52912;48.564;9.302;2023-07-30T05:52:38;18.68;95.97
66119;DHT22;52912;48.564;9.302;2023-07-30T05:55:05;18.53;96.22
66119;DHT22;52912;48.564;9.302;2023-07-30T05:57:30;18.50;96.40
66119;DHT22;52912;48.564;9.302;2023-07-30T05:59:57;18.48;96.10
66119;DHT22;52912;48.564;9.302;2023-07-30T06:02:23;18.61;96.83
66119;DHT22;52912;48.564;9.302;2023-07-30T06:04:48;18.65;96.02
66119;DHT22;52912;48.564;9.302;2023-07-30T06:07:16;18.58;96.00
66119;DHT22;52912;48.564;9.302;2023-07-30T06:09:44;18.67;96.20
66119;DHT22;52912;48.564;9.302;2023-07-30T06:12:09;18.74;96.65
66119;DHT22;52912;48.564;9.302;2023-07-30T06:14:35;18.78;96.99
66119;DHT22;52912;48.564;9.302;2023-07-30T06:17:02;18.78;96.36
66119;DHT22;52912;48.564;9.302;2023-07-30T06:19:28;18.89;96.70
66119;DHT22;52912;48.564;9.302;2023-07-30T06:21:53;18.92;96.64
66119;DHT22;52912;48.564;9.302;2023-07-30T06:24:19;18.92;96.36
66119;DHT22;52912;48.564;9.302;2023-07-30T06:26:44;18.92;96.60
66119;DHT22;52912;48.564;9.302;2023-07-30T06:29:10;19.02;97.03
66119;DHT22;52912;48.564;9.302;2023-07-30T06:31:36;19.03;97.18
66119;DHT22;52912;48.564;9.302;2023-07-30T06:34:03;19.02;96.99
66119;DHT22;52912;48.564;9.302;2023-07-30T06:36:28;19.01;96.33
66119;DHT22;52912;48.564;9.302;2023-07-30T06:38:54;19.05;97.00
66119;DHT22;52912;48.564;9.302;2023-07-30T06:41:19;19.06;96.51
66119;DHT22;52912;48.564;9.302;2023-07-30T06:43:46;19.15;96.95
66119;DHT22;52912;48.564;9.302;2023-07-30T06:46:12;19.01;97.82
66119;DHT22;52912;48.564;9.302;2023-07-30T06:48:38;19.15;96.85
66119;DHT22;52912;48.564;9.302;2023-07-30T06:51:06;19.16;97.14
66119;DHT22;52912;48.564;9.302;2023-07-30T06:53:35;19.16;97.07
66119;DHT22;52912;48.564;9.302;2023-07-30T06:56:00;19.08;97.13
66119;DHT22;52912;48.564;9.302;2023-07-30T06:58:29;19.24;97.31
66119;DHT22;52912;48.564;9.302;2023-07-30T07:01:01;19.33;97.37
66119;DHT22;52912;48.564;9.302;2023-07-30T07:03:28;19.51;96.94
66119;DHT22;52912;48.564;9.302;2023-07-30T07:05:56;19.61;96.88
66119;DHT22;52912;48.564;9.302;2023-07-30T07:08:30;19.70;95.57
66119;DHT22;52912;48.564;9.302;2023-07-30T07:10:56;19.77;95.89
66119;DHT22;52912;48.564;9.302;2023-07-30T07:13:24;19.93;95.25
66119;DHT22;52912;48.564;9.302;2023-07-30T07:28:07;20.47;91.79
66119;DHT22;52912;48.564;9.302;2023-07-30T07:30:34;20.43;92.43
66119;DHT22;52912;48.564;9.302;2023-07-30T07:33:00;20.44;92.42
66119;DHT22;52912;48.564;9.302;2023-07-30T07:35:25;20.32;92.75
66119;DHT22;52912;48.564;9.302;2023-07-30T07:37:51;20.33;92.29
66119;DHT22;52912;48.564;9.302;2023-07-30T07:40:16;20.36;93.73
66119;DHT22;52912;48.564;9.302;2023-07-30T07:42:42;20.05;95.52
66119;DHT22;52912;48.564;9.302;2023-07-30T07:45:09;19.88;96.28
66119;DHT22;52912;48.564;9.302;2023-07-30T07:47:34;19.38;94.76
66119;DHT22;52912;48.564;9.302;2023-07-30T07:50:00;18.94;95.91
66119;DHT22;52912;48.564;9.302;2023-07-30T07:52:26;18.58;95.38
66119;DHT22;52912;48.564;9.302;2023-07-30T07:54:51;18.23;95.06
66119;DHT22;52912;48.564;9.302;2023-07-30T07:57:17;18.23;95.25
66119;DHT22;52912;48.564;9.302;2023-07-30T07:59:42;18.23;97.15
66119;DHT22;52912;48.564;9.302;2023-07-30T08:02:27;18.25;96.51
66119;DHT22;52912;48.564;9.302;2023-07-30T08:04:53;18.36;96.80
66119;DHT22;52912;48.564;9.302;2023-07-30T08:07:19;18.37;96.19
66119;DHT22;52912;48.564;9.302;2023-07-30T08:09:45;18.54;97.08
66119;DHT22;52912;48.564;9.302;2023-07-30T08:12:10;18.48;96.93
66119;DHT22;52912;48.564;9.302;2023-07-30T08:14:36;18.48;97.17
66119;DHT22;52912;48.564;9.302;2023-07-30T08:17:01;18.48;96.78
66119;DHT22;52912;48.564;9.302;2023-07-30T08:19:28;18.63;96.55
66119;DHT22;52912;48.564;9.302;2023-07-30T08:21:53;18.88;96.74
66119;DHT22;52912;48.564;9.302;2023-07-30T08:24:19;19.24;96.28
66119;DHT22;52912;48.564;9.302;2023-07-30T08:26:44;19.51;95.95
66119;DHT22;52912;48.564;9.302;2023-07-30T08:29:10;19.68;95.21
66119;DHT22;52912;48.564;9.302;2023-07-30T08:31:35;19.63;95.09
66119;DHT22;52912;48.564;9.302;2023-07-30T08:34:01;19.75;94.40
66119;DHT22;52912;48.564;9.302;2023-07-30T08:36:27;20.04;93.89
66119;DHT22;52912;48.564;9.302;2023-07-30T08:38:53;20.02;94.96
66119;DHT22;52912;48.564;9.302;2023-07-30T08:41:18;20.13;93.97
66119;DHT22;52912;48.564;9.302;2023-07-30T08:43:44;20.43;93.21
66119;DHT22;52912;48.564;9.302;2023-07-30T08:46:10;20.54;93.57
66119;DHT22;52912;48.564;9.302;2023-07-30T08:48:35;20.81;92.49
66119;DHT22;52912;48.564;9.302;2023-07-30T08:51:01;20.94;90.84
66119;DHT22;52912;48.564;9.302;2023-07-30T08:53:28;20.84;92.32
66119;DHT22;52912;48.564;9.302;2023-07-30T08:55:55;20.84;91.68
66119;DHT22;52912;48.564;9.302;2023-07-30T08:58:22;20.91;91.38
66119;DHT22;52912;48.564;9.302;2023-07-30T09:00:49;20.78;92.36
66119;DHT22;52912;48.564;9.302;2023-07-30T09:03:16;20.88;92.15
66119;DHT22;52912;48.564;9.302;2023-07-30T09:05:42;21.16;89.94
66119;DHT22;52912;48.564;9.302;2023-07-30T09:08:08;21.32;89.71
66119;DHT22;52912;48.564;9.302;2023-07-30T09:10:36;21.60;88.94
66119;DHT22;52912;48.564;9.302;2023-07-30T09:13:02;21.55;90.46
66119;DHT22;52912;48.564;9.302;2023-07-30T09:15:31;21.44;88.52
66119;DHT22;52912;48.564;9.302;2023-07-30T09:17:57;21.41;88.58
66119;DHT22;52912;48.564;9.302;2023-07-30T09:20:22;21.62;88.52
66119;DHT22;52912;48.564;9.302;2023-07-30T09:22:48;21.65;87.95
66119;DHT22;52912;48.564;9.302;2023-07-30T09:25:13;21.65;87.70
66119;DHT22;52912;48.564;9.302;2023-07-30T09:27:40;21.58;89.53
66119;DHT22;52912;48.564;9.302;2023-07-30T09:30:06;21.54;89.21
66119;DHT22;52912;48.564;9.302;2023-07-30T09:32:33;21.44;89.17
66119;DHT22;52912;48.564;9.302;2023-07-30T09:35:04;21.23;88.00
66119;DHT22;52912;48.564;9.302;2023-07-30T09:37:30;21.05;88.41
66119;DHT22;52912;48.564;9.302;2023-07-30T09:39:57;20.71;89.08
66119;DHT22;52912;48.564;9.302;2023-07-30T09:42:26;20.70;91.51
66119;DHT22;52912;48.564;9.302;2023-07-30T09:44:53;20.48;92.95
66119;DHT22;52912;48.564;9.302;2023-07-30T09:47:18;20.30;92.83
66119;DHT22;52912;48.564;9.302;2023-07-30T09:49:44;20.16;93.85
66119;DHT22;52912;48.564;9.302;2023-07-30T09:52:10;20.16;94.78
66119;DHT22;52912;48.564;9.302;2023-07-30T09:54:37;20.22;93.80
66119;DHT22;52912;48.564;9.302;2023-07-30T09:57:03;19.99;93.41
66119;DHT22;52912;48.564;9.302;2023-07-30T09:59:29;19.88;94.20
66119;DHT22;52912;48.564;9.302;2023-07-30T10:01:57;19.24;92.96
66119;DHT22;52912;48.564;9.302;2023-07-30T10:04:23;19.27;92.78
66119;DHT22;52912;48.564;9.302;2023-07-30T10:06:54;19.16;92.62
66119;DHT22;52912;48.564;9.302;2023-07-30T10:09:22;19.03;93.62
66119;DHT22;52912;48.564;9.302;2023-07-30T10:11:49;19.18;94.58
66119;DHT22;52912;48.564;9.302;2023-07-30T10:14:17;19.49;94.30
66119;DHT22;52912;48.564;9.302;2023-07-30T10:16:50;19.51;93.68
66119;DHT22;52912;48.564;9.302;2023-07-30T10:19:17;19.68;94.01
66119;DHT22;52912;48.564;9.302;2023-07-30T10:21:47;19.99;93.56
66119;DHT22;52912;48.564;9.302;2023-07-30T10:24:12;20.19;92.08
66119;DHT22;52912;48.564;9.302;2023-07-30T10:26:37;20.43;90.60
66119;DHT22;52912;48.564;9.302;2023-07-30T10:29:13;20.78;88.86
66119;DHT22;52912;48.564;9.302;2023-07-30T10:31:40;20.88;88.76
66119;DHT22;52912;48.564;9.302;2023-07-30T10:34:06;21.22;89.59
66119;DHT22;52912;48.564;9.302;2023-07-30T10:36:40;21.09;87.33
66119;DHT22;52912;48.564;9.302;2023-07-30T10:39:17;21.12;87.96
66119;DHT22;52912;48.564;9.302;2023-07-30T10:41:44;21.03;87.02
66119;DHT22;52912;48.564;9.302;2023-07-30T10:44:17;20.88;86.61
66119;DHT22;52912;48.564;9.302;2023-07-30T10:46:43;21.06;87.38
66119;DHT22;52912;48.564;9.302;2023-07-30T10:49:09;21.10;86.85
66119;DHT22;52912;48.564;9.302;2023-07-30T10:51:36;21.06;87.71
66119;DHT22;52912;48.564;9.302;2023-07-30T10:54:05;21.23;87.23
66119;DHT22;52912;48.564;9.302;2023-07-30T10:56:31;21.49;85.91
66119;DHT22;52912;48.564;9.302;2023-07-30T10:58:57;22.09;85.41
66119;DHT22;52912;48.564;9.302;2023-07-30T11:01:24;21.67;84.70
66119;DHT22;52912;48.564;9.302;2023-07-30T11:03:50;22.14;83.59
66119;DHT22;52912;48.564;9.302;2023-07-30T11:06:21;22.06;83.69
66119;DHT22;52912;48.564;9.302;2023-07-30T11:08:48;22.61;82.31
66119;DHT22;52912;48.564;9.302;2023-07-30T11:11:13;22.72;82.27
66119;DHT22;52912;48.564;9.302;2023-07-30T11:13:40;23.55;82.72
66119;DHT22;52912;48.564;9.302;2023-07-30T11:16:06;22.95;82.54
66119;DHT22;52912;48.564;9.302;2023-07-30T11:18:32;23.36;79.58
66119;DHT22;52912;48.564;9.302;2023-07-30T11:21:03;24.10;78.20
66119;DHT22;52912;48.564;9.302;2023-07-30T11:23:28;23.53;78.34
66119;DHT22;52912;48.564;9.302;2023-07-30T11:25:55;23.57;78.18
66119;DHT22;52912;48.564;9.302;2023-07-30T11:28:30;23.75;77.42
66119;DHT22;52912;48.564;9.302;2023-07-30T11:30:58;23.98;76.12
66119;DHT22;52912;48.564;9.302;2023-07-30T11:33:24;24.82;77.52
66119;DHT22;52912;48.564;9.302;2023-07-30T11:35:50;25.14;73.78
66119;DHT22;52912;48.564;9.302;2023-07-30T11:38:16;25.23;73.60
66119;DHT22;52912;48.564;9.302;2023-07-30T11:40:41;25.20;73.14
66119;DHT22;52912;48.564;9.302;2023-07-30T11:43:08;25.34;73.51
66119;DHT22;52912;48.564;9.302;2023-07-30T11:45:34;25.46;72.86
66119;DHT22;52912;48.564;9.302;2023-07-30T11:48:05;25.23;70.66
66119;DHT22;52912;48.564;9.302;2023-07-30T11:50:42;25.66;68.95
66119;DHT22;52912;48.564;9.302;2023-07-30T11:53:08;25.89;67.77
66119;DHT22;52912;48.564;9.302;2023-07-30T11:55:37;26.09;67.48
66119;DHT22;52912;48.564;9.302;2023-07-30T11:58:03;26.05;63.69
66119;DHT22;52912;48.564;9.302;2023-07-30T12:00:31;26.29;63.65
66119;DHT22;52912;48.564;9.302;2023-07-30T12:02:59;26.12;64.63
66119;DHT22;52912;48.564;9.302;2023-07-30T12:05:32;26.43;63.43
66119;DHT22;52912;48.564;9.302;2023-07-30T12:07:58;26.12;62.60
66119;DHT22;52912;48.564;9.302;2023-07-30T12:10:23;26.16;63.44
66119;DHT22;52912;48.564;9.302;2023-07-30T12:12:51;25.77;63.24
66119;DHT22;52912;48.564;9.302;2023-07-30T12:15:16;24.99;64.77
66119;DHT22;52912;48.564;9.302;2023-07-30T12:17:43;25.54;63.89
66119;DHT22;52912;48.564;9.302;2023-07-30T12:20:11;24.71;65.57
66119;DHT22;52912;48.564;9.302;2023-07-30T12:22:36;25.34;65.64
66119;DHT22;52912;48.564;9.302;2023-07-30T12:25:02;26.01;63.61
66119;DHT22;52912;48.564;9.302;2023-07-30T12:27:28;26.51;64.53
66119;DHT22;52912;48.564;9.302;2023-07-30T12:29:54;26.68;62.28
66119;DHT22;52912;48.564;9.302;2023-07-30T12:32:19;27.25;63.81
66119;DHT22;52912;48.564;9.302;2023-07-30T12:34:46;26.81;60.67
66119;DHT22;52912;48.564;9.302;2023-07-30T12:37:11;26.74;61.63
66119;DHT22;52912;48.564;9.302;2023-07-30T12:39:37;26.56;60.29
66119;DHT22;52912;48.564;9.302;2023-07-30T12:42:03;26.53;60.71
66119;DHT22;52912;48.564;9.302;2023-07-30T12:44:28;26.15;61.06
66119;DHT22;52912;48.564;9.302;2023-07-30T12:46:54;25.88;61.37
66119;DHT22;52912;48.564;9.302;2023-07-30T12:49:19;26.41;61.26
66119;DHT22;52912;48.564;9.302;2023-07-30T12:51:46;26.30;62.30
66119;DHT22;52912;48.564;9.302;2023-07-30T12:54:12;26.74;60.55
66119;DHT22;52912;48.564;9.302;2023-07-30T12:56:37;26.29;59.65
66119;DHT22;52912;48.564;9.302;2023-07-30T12:59:03;26.36;60.96
66119;DHT22;52912;48.564;9.302;2023-07-30T13:01:28;26.37;61.55
66119;DHT22;52912;48.564;9.302;2023-07-30T13:03:54;25.85;62.38
66119;DHT22;52912;48.564;9.302;2023-07-30T13:06:20;25.64;62.43
66119;DHT22;52912;48.564;9.302;2023-07-30T13:08:46;25.15;61.90
66119;DHT22;52912;48.564;9.302;2023-07-30T13:11:12;25.15;62.86
66119;DHT22;52912;48.564;9.302;2023-07-30T13:13:37;25.08;63.22
66119;DHT22;52912;48.564;9.302;2023-07-30T13:16:03;25.25;62.89
66119;DHT22;52912;48.564;9.302;2023-07-30T13:18:29;25.99;62.21
66119;DHT22;52912;48.564;9.302;2023-07-30T13:20:54;26.28;62.07
66119;DHT22;52912;48.564;9.302;2023-07-30T13:23:20;27.25;62.91
66119;DHT22;52912;48.564;9.302;2023-07-30T13:25:47;26.84;62.37
66119;DHT22;52912;48.564;9.302;2023-07-30T13:28:12;26.44;62.85
66119;DHT22;52912;48.564;9.302;2023-07-30T13:30:38;26.33;62.65
66119;DHT22;52912;48.564;9.302;2023-07-30T13:33:03;26.70;61.63
66119;DHT22;52912;48.564;9.302;2023-07-30T13:35:29;25.95;64.79
66119;DHT22;52912;48.564;9.302;2023-07-30T13:37:54;25.66;63.58
66119;DHT22;52912;48.564;9.302;2023-07-30T13:40:20;25.84;64.29
66119;DHT22;52912;48.564;9.302;2023-07-30T13:42:47;25.47;65.01
66119;DHT22;52912;48.564;9.302;2023-07-30T13:45:12;25.06;64.91
66119;DHT22;52912;48.564;9.302;2023-07-30T13:47:38;24.77;64.69
66119;DHT22;52912;48.564;9.302;2023-07-30T13:50:04;24.63;64.77
66119;DHT22;52912;48.564;9.302;2023-07-30T13:52:29;24.70;66.04
66119;DHT22;52912;48.564;9.302;2023-07-30T13:54:55;24.63;66.68
66119;DHT22;52912;48.564;9.302;2023-07-30T13:57:24;24.49;66.87
66119;DHT22;52912;48.564;9.302;2023-07-30T13:59:51;24.65;65.52
66119;DHT22;52912;48.564;9.302;2023-07-30T14:02:16;24.82;65.02
66119;DHT22;52912;48.564;9.302;2023-07-30T14:04:42;25.11;65.26
66119;DHT22;52912;48.564;9.302;2023-07-30T14:07:07;24.88;66.49
66119;DHT22;52912;48.564;9.302;2023-07-30T14:09:33;24.63;65.87
66119;DHT22;52912;48.564;9.302;2023-07-30T14:11:58;26.09;63.86
66119;DHT22;52912;48.564;9.302;2023-07-30T14:14:24;26.35;63.84
66119;DHT22;52912;48.564;9.302;2023-07-30T14:16:51;26.56;62.45
66119;DHT22;52912;48.564;9.302;2023-07-30T14:19:16;26.90;61.69
66119;DHT22;52912;48.564;9.302;2023-07-30T14:21:41;27.02;61.82
66119;DHT22;52912;48.564;9.302;2023-07-30T14:24:07;27.15;61.59
66119;DHT22;52912;48.564;9.302;2023-07-30T14:26:32;27.81;61.42
66119;DHT22;52912;48.564;9.302;2023-07-30T14:28:58;27.05;61.28
66119;DHT22;52912;48.564;9.302;2023-07-30T14:31:23;26.22;62.46
66119;DHT22;52912;48.564;9.302;2023-07-30T14:33:50;25.50;64.46
66119;DHT22;52912;48.564;9.302;2023-07-30T14:36:15;25.33;64.27
66119;DHT22;52912;48.564;9.302;2023-07-30T14:38:41;25.16;65.39
66119;DHT22;52912;48.564;9.302;2023-07-30T14:41:06;25.15;65.52
66119;DHT22;52912;48.564;9.302;2023-07-30T14:43:32;25.56;63.39
66119;DHT22;52912;48.564;9.302;2023-07-30T14:45:57;25.05;65.19
66119;DHT22;52912;48.564;9.302;2023-07-30T14:48:23;25.44;63.76
66119;DHT22;52912;48.564;9.302;2023-07-30T14:50:49;25.30;64.22
66119;DHT22;52912;48.564;9.302;2023-07-30T14:53:15;25.02;63.89
66119;DHT22;52912;48.564;9.302;2023-07-30T14:55:40;24.92;64.40
66119;DHT22;52912;48.564;9.302;2023-07-30T14:58:06;25.04;64.47
66119;DHT22;52912;48.564;9.302;2023-07-30T15:00:31;26.15;63.62
66119;DHT22;52912;48.564;9.302;2023-07-30T15:02:57;24.65;64.37
66119;DHT22;52912;48.564;9.302;2023-07-30T15:05:22;24.68;65.15
66119;DHT22;52912;48.564;9.302;2023-07-30T15:07:49;24.50;65.43
66119;DHT22;52912;48.564;9.302;2023-07-30T15:10:15;24.05;66.16
66119;DHT22;52912;48.564;9.302;2023-07-30T15:12:40;23.97;66.01
66119;DHT22;52912;48.564;9.302;2023-07-30T15:15:07;23.63;67.01
66119;DHT22;52912;48.564;9.302;2023-07-30T15:17:34;23.49;66.31
66119;DHT22;52912;48.564;9.302;2023-07-30T15:19:59;23.51;67.31
66119;DHT22;52912;48.564;9.302;2023-07-30T15:22:25;23.84;66.77
66119;DHT22;52912;48.564;9.302;2023-07-30T15:24:52;23.70;66.47
66119;DHT22;52912;48.564;9.302;2023-07-30T15:27:17;23.68;65.68
66119;DHT22;52912;48.564;9.302;2023-07-30T15:29:43;23.88;64.66
66119;DHT22;52912;48.564;9.302;2023-07-30T15:32:09;23.68;63.54
66119;DHT22;52912;48.564;9.302;2023-07-30T15:34:34;23.89;63.38
66119;DHT22;52912;48.564;9.302;2023-07-30T15:37:00;23.78;63.17
66119;DHT22;52912;48.564;9.302;2023-07-30T15:39:25;23.92;63.12
66119;DHT22;52912;48.564;9.302;2023-07-30T15:41:52;23.95;63.63
66119;DHT22;52912;48.564;9.302;2023-07-30T15:44:18;24.57;61.81
66119;DHT22;52912;48.564;9.302;2023-07-30T15:46:44;24.26;62.62
66119;DHT22;52912;48.564;9.302;2023-07-30T15:49:10;24.46;63.30
66119;DHT22;52912;48.564;9.302;2023-07-30T15:51:35;24.17;64.68
66119;DHT22;52912;48.564;9.302;2023-07-30T15:54:01;24.08;65.20
66119;DHT22;52912;48.564;9.302;2023-07-30T15:56:26;23.89;64.40
66119;DHT22;52912;48.564;9.302;2023-07-30T15:58:53;23.53;65.54
66119;DHT22;52912;48.564;9.302;2023-07-30T16:01:18;23.30;65.96
66119;DHT22;52912;48.564;9.302;2023-07-30T16:03:44;23.27;65.54